Time;durP1;ratioP1;P1;durP2;ratioP2;P2;SDS_P1;SDS_P2;PMS_P1;PMS_P2;Temp;Humidity;BMP_temperature;BMP_pressure;BME280_temperature;BME280_humidity;BME280_pressure;Samples;Min_cycle;Max_cycle;Signal;HPM_P1;HPM_P2
2021/01/26 00:00:17;;;;;;;16.02;11.70;;;;;;;;;;5111731;28;20362;-61
2021/01/26 00:02:43;;;;;;;15.95;10.82;;;;;;;;;;5113005;28;20032;-60
2021/01/26 00:05:09;;;;;;;13.35;10.25;;;;;;;;;;5112484;28;20037;-60
2021/01/26 00:07:35;;;;;;;11.45;8.98;;;;;;;;;;5112136;28;20423;-60
2021/01/26 00:10:01;;;;;;;19.15;9.77;;;;;;;;;;5110972;28;20118;-60
2021/01/26 00:12:27;;;;;;;12.45;10.20;;;;;;;;;;5111735;28;20421;-60
2021/01/26 00:14:52;;;;;;;11.68;9.38;;;;;;;;;;5112475;28;20032;-60
2021/01/26 00:17:17;;;;;;;13.27;10.20;;;;;;;;;;5110446;28;20058;-60
2021/01/26 00:19:43;;;;;;;13.80;9.38;;;;;;;;;;5111597;28;20036;-60
2021/01/26 00:22:08;;;;;;;13.93;9.30;;;;;;;;;;5112434;28;20486;-60
2021/01/26 00:24:33;;;;;;;12.73;8.73;;;;;;;;;;5110586;28;20704;-61
2021/01/26 00:26:59;;;;;;;12.65;8.80;;;;;;;;;;5109990;28;20044;-60
2021/01/26 00:29:24;;;;;;;12.50;9.05;;;;;;;;;;5111832;28;20419;-60
2021/01/26 00:31:50;;;;;;;13.38;9.30;;;;;;;;;;5111803;28;20040;-60
2021/01/26 00:34:15;;;;;;;11.27;9.32;;;;;;;;;;5111174;28;20361;-60
2021/01/26 00:36:40;;;;;;;17.83;11.23;;;;;;;;;;5111503;28;20023;-60
2021/01/26 00:39:06;;;;;;;14.10;10.20;;;;;;;;;;5111917;28;20055;-60
2021/01/26 00:41:32;;;;;;;14.25;10.48;;;;;;;;;;5111578;28;20094;-60
2021/01/26 00:43:57;;;;;;;15.73;10.15;;;;;;;;;;5107964;28;20035;-60
2021/01/26 00:46:23;;;;;;;13.65;10.55;;;;;;;;;;5111812;28;20065;-60
2021/01/26 00:48:48;;;;;;;13.27;9.93;;;;;;;;;;5108886;28;20058;-60
2021/01/26 00:51:13;;;;;;;17.75;11.15;;;;;;;;;;5111514;28;20034;-60
2021/01/26 00:53:39;;;;;;;19.20;10.82;;;;;;;;;;5111081;28;20093;-61
2021/01/26 00:56:04;;;;;;;13.55;10.90;;;;;;;;;;5107677;28;20028;-61
2021/01/26 00:58:30;;;;;;;14.27;10.55;;;;;;;;;;5110788;28;20341;-61
2021/01/26 01:00:55;;;;;;;16.70;10.75;;;;;;;;;;5110922;28;20245;-60
2021/01/26 01:03:21;;;;;;;15.50;11.75;;;;;;;;;;5109135;28;20115;-60
2021/01/26 01:05:46;;;;;;;14.25;10.80;;;;;;;;;;5109531;28;20031;-60
2021/01/26 01:08:11;;;;;;;19.00;11.93;;;;;;;;;;5111020;28;20063;-60
2021/01/26 01:10:38;;;;;;;14.57;11.35;;;;;;;;;;5110383;28;20039;-60
2021/01/26 01:13:08;;;;;;;16.33;12.35;;;;;;;;;;5110533;28;20042;-60
2021/01/26 01:15:33;;;;;;;14.27;11.00;;;;;;;;;;5109968;28;20149;-60
2021/01/26 01:17:59;;;;;;;16.08;11.75;;;;;;;;;;5111340;28;20111;-60
2021/01/26 01:20:26;;;;;;;15.65;11.65;;;;;;;;;;5110760;28;20051;-61
2021/01/26 01:22:52;;;;;;;16.95;12.43;;;;;;;;;;5109852;28;20035;-60
2021/01/26 01:25:17;;;;;;;20.63;13.35;;;;;;;;;;5111410;28;20027;-60
2021/01/26 01:27:43;;;;;;;18.02;12.52;;;;;;;;;;5110784;28;20566;-60
2021/01/26 01:30:10;;;;;;;17.42;12.80;;;;;;;;;;5111184;28;20031;-60
2021/01/26 01:32:35;;;;;;;15.50;12.65;;;;;;;;;;5107760;28;20032;-60
2021/01/26 01:35:01;;;;;;;17.63;13.55;;;;;;;;;;5111079;28;20110;-60
2021/01/26 01:37:27;;;;;;;17.10;13.55;;;;;;;;;;5110389;28;20061;-60
2021/01/26 01:39:52;;;;;;;20.13;12.77;;;;;;;;;;5108358;28;20083;-60
2021/01/26 01:42:18;;;;;;;20.05;13.07;;;;;;;;;;5110815;28;20457;-60
2021/01/26 01:44:43;;;;;;;17.60;13.13;;;;;;;;;;5110421;28;20035;-60
2021/01/26 01:47:15;;;;;;;16.13;12.55;;;;;;;;;;5110516;28;20089;-60
2021/01/26 01:49:46;;;;;;;15.63;12.25;;;;;;;;;;5108480;28;20042;-60
2021/01/26 01:52:33;;;;;;;17.60;12.50;;;;;;;;;;5109358;28;20031;-60
2021/01/26 01:55:05;;;;;;;16.88;12.98;;;;;;;;;;5108473;28;20036;-60
2021/01/26 01:57:34;;;;;;;17.48;13.30;;;;;;;;;;5106877;28;20360;-61
2021/01/26 02:00:07;;;;;;;15.90;11.95;;;;;;;;;;5108468;28;20035;-60
2021/01/26 02:02:32;;;;;;;18.88;12.93;;;;;;;;;;5109675;28;20043;-61
2021/01/26 02:05:03;;;;;;;17.23;12.73;;;;;;;;;;5108920;28;20035;-60
2021/01/26 02:07:30;;;;;;;15.50;12.75;;;;;;;;;;5108544;28;20426;-61
2021/01/26 02:09:56;;;;;;;18.08;13.38;;;;;;;;;;5109400;28;20042;-61
2021/01/26 02:12:21;;;;;;;18.77;13.55;;;;;;;;;;5110056;28;20023;-60
2021/01/26 02:14:55;;;;;;;16.25;13.05;;;;;;;;;;5109128;28;20567;-60
2021/01/26 02:17:39;;;;;;;21.17;13.10;;;;;;;;;;5109701;28;20054;-61
2021/01/26 02:20:34;;;;;;;18.02;13.68;;;;;;;;;;5108424;28;20188;-60
2021/01/26 02:23:37;;;;;;;16.55;12.57;;;;;;;;;;5106313;28;20345;-60
2021/01/26 02:26:21;;;;;;;19.35;13.20;;;;;;;;;;5107173;28;20027;-60
2021/01/26 02:28:58;;;;;;;22.35;14.13;;;;;;;;;;5109029;28;20130;-60
2021/01/26 02:31:44;;;;;;;17.30;13.55;;;;;;;;;;5108437;28;20608;-60
2021/01/26 02:34:46;;;;;;;20.13;12.70;;;;;;;;;;5109008;28;20039;-60
2021/01/26 02:37:17;;;;;;;;;;;;;;;;;;5109759;28;20031;-60
2021/01/26 02:39:54;;;;;;;24.67;14.45;;;;;;;;;;5109780;28;19981;-60
2021/01/26 02:42:47;;;;;;;17.55;14.07;;;;;;;;;;5109232;28;20039;-61
2021/01/26 02:45:20;;;;;;;17.27;12.20;;;;;;;;;;5109026;28;20096;-60
2021/01/26 02:48:22;;;;;;;17.95;14.15;;;;;;;;;;5108878;28;20031;-60
2021/01/26 02:50:51;;;;;;;18.00;13.48;;;;;;;;;;5107758;28;20685;-60
2021/01/26 02:53:44;;;;;;;18.70;13.85;;;;;;;;;;5108664;28;20031;-61
2021/01/26 02:56:47;;;;;;;19.48;13.32;;;;;;;;;;5107612;28;20425;-61
2021/01/26 02:59:24;;;;;;;18.60;13.70;;;;;;;;;;5107486;28;20038;-60
2021/01/26 03:01:57;;;;;;;21.58;15.13;;;;;;;;;;5107926;28;20075;-60
2021/01/26 03:04:31;;;;;;;20.98;14.23;;;;;;;;;;5108148;28;20130;-60
2021/01/26 03:07:00;;;;;;;18.92;14.32;;;;;;;;;;5109668;28;20061;-61
2021/01/26 03:09:30;;;;;;;19.05;13.35;;;;;;;;;;5107599;28;20040;-61
2021/01/26 03:12:04;;;;;;;20.50;13.32;;;;;;;;;;5109548;28;20028;-61
2021/01/26 03:14:38;;;;;;;20.35;13.98;;;;;;;;;;5108998;28;20045;-60
2021/01/26 03:17:11;;;;;;;19.27;14.18;;;;;;;;;;5104927;28;20027;-60
2021/01/26 03:19:39;;;;;;;18.25;12.70;;;;;;;;;;5109297;28;20452;-60
2021/01/26 03:22:08;;;;;;;17.70;12.57;;;;;;;;;;5112063;28;20088;-61
2021/01/26 03:24:39;;;;;;;17.77;12.75;;;;;;;;;;5111883;28;20492;-60
2021/01/26 03:27:06;;;;;;;;;;;;;;;;;;5112891;28;20032;-60
2021/01/26 03:29:36;;;;;;;15.25;10.73;;;;;;;;;;5112240;28;19923;-60
2021/01/26 03:32:05;;;;;;;13.85;10.07;;;;;;;;;;5111422;28;20031;-60
2021/01/26 03:34:33;;;;;;;14.00;9.95;;;;;;;;;;5106908;28;20063;-60
2021/01/26 03:36:58;;;;;;;15.20;10.32;;;;;;;;;;5109987;28;20046;-60
2021/01/26 03:39:23;;;;;;;15.50;11.20;;;;;;;;;;5112762;28;20039;-60
2021/01/26 03:41:49;;;;;;;18.75;11.90;;;;;;;;;;5112020;28;20035;-61
2021/01/26 03:44:14;;;;;;;16.23;11.07;;;;;;;;;;5113163;28;20046;-59
2021/01/26 03:46:46;;;;;;;14.45;10.85;;;;;;;;;;5112270;28;20036;-59
2021/01/26 03:49:24;;;;;;;16.50;11.15;;;;;;;;;;5111733;28;20511;-59
2021/01/26 03:52:09;;;;;;;15.32;10.55;;;;;;;;;;5111804;28;20063;-60
2021/01/26 03:54:58;;;;;;;15.82;9.63;;;;;;;;;;5112486;28;20028;-60
2021/01/26 03:57:42;;;;;;;18.48;10.40;;;;;;;;;;5112130;28;20475;-60
2021/01/26 04:00:21;;;;;;;19.13;11.43;;;;;;;;;;5111505;28;20040;-60
2021/01/26 04:02:55;;;;;;;16.15;11.23;;;;;;;;;;5112940;28;20027;-60
2021/01/26 04:05:37;;;;;;;14.80;9.90;;;;;;;;;;5111684;28;20038;-60
2021/01/26 04:08:11;;;;;;;17.30;9.85;;;;;;;;;;5108582;28;20077;-60
2021/01/26 04:10:41;;;;;;;15.70;10.07;;;;;;;;;;5112074;28;20422;-60
2021/01/26 04:13:12;;;;;;;19.00;11.35;;;;;;;;;;5112727;28;20626;-60
2021/01/26 04:15:49;;;;;;;17.98;10.60;;;;;;;;;;5111694;28;20049;-60
2021/01/26 04:18:20;;;;;;;13.98;9.85;;;;;;;;;;5111687;28;20467;-59
2021/01/26 04:20:48;;;;;;;9.70;7.57;;;;;;;;;;5112650;28;20023;-60
2021/01/26 04:23:14;;;;;;;16.42;9.50;;;;;;;;;;5112477;28;20780;-60
2021/01/26 04:25:42;;;;;;;14.32;9.75;;;;;;;;;;5112081;27;20088;-60
2021/01/26 04:28:10;;;;;;;18.13;9.02;;;;;;;;;;5110709;28;20057;-60
2021/01/26 04:30:36;;;;;;;14.20;9.77;;;;;;;;;;5111935;28;20085;-60
2021/01/26 04:33:14;;;;;;;15.27;9.85;;;;;;;;;;5111902;28;20036;-61
2021/01/26 04:35:40;;;;;;;15.48;9.35;;;;;;;;;;5110979;28;20043;-61
2021/01/26 04:38:06;;;;;;;14.75;9.07;;;;;;;;;;5112172;28;20484;-61
2021/01/26 04:40:35;;;;;;;12.60;8.52;;;;;;;;;;5110750;28;20031;-60
2021/01/26 04:43:09;;;;;;;14.80;9.10;;;;;;;;;;5109854;28;20042;-61
2021/01/26 04:45:37;;;;;;;11.40;8.43;;;;;;;;;;5109801;28;20047;-61
2021/01/26 04:48:11;;;;;;;13.68;8.43;;;;;;;;;;5111649;28;20088;-61
2021/01/26 04:50:49;;;;;;;13.73;7.95;;;;;;;;;;5111822;28;20028;-60
2021/01/26 04:53:43;;;;;;;10.73;7.97;;;;;;;;;;5111778;28;20449;-61
2021/01/26 04:56:28;;;;;;;14.77;8.65;;;;;;;;;;5109870;28;20149;-61
2021/01/26 04:58:59;;;;;;;14.50;8.73;;;;;;;;;;5111089;28;20045;-60
2021/01/26 05:01:25;;;;;;;;;;;;;;;;;;5111187;28;20070;-60
2021/01/26 05:04:14;;;;;;;13.52;8.27;;;;;;;;;;5110723;28;19969;-61
2021/01/26 05:06:46;;;;;;;16.80;8.32;;;;;;;;;;5110472;28;20047;-60
2021/01/26 05:09:20;;;;;;;17.40;9.02;;;;;;;;;;5111537;28;20476;-60
2021/01/26 05:11:48;;;;;;;11.88;7.63;;;;;;;;;;5110228;28;20035;-60
2021/01/26 05:14:19;;;;;;;12.35;8.13;;;;;;;;;;5111349;28;20107;-60
2021/01/26 05:17:02;;;;;;;14.13;8.40;;;;;;;;;;5111132;28;20038;-60
2021/01/26 05:19:41;;;;;;;13.10;8.10;;;;;;;;;;5110580;28;20491;-60
2021/01/26 05:22:18;;;;;;;11.40;7.82;;;;;;;;;;5108125;28;20065;-61
2021/01/26 05:24:53;;;;;;;10.27;6.88;;;;;;;;;;5111145;28;20357;-60
2021/01/26 05:27:18;;;;;;;14.05;8.18;;;;;;;;;;5108977;28;20044;-60
2021/01/26 05:29:44;;;;;;;12.93;8.95;;;;;;;;;;5109955;28;20027;-61
2021/01/26 05:32:11;;;;;;;17.33;7.75;;;;;;;;;;5111498;28;20334;-60
2021/01/26 05:34:39;;;;;;;12.40;7.60;;;;;;;;;;5109449;28;20039;-61
2021/01/26 05:37:07;;;;;;;12.18;7.25;;;;;;;;;;5109246;28;20035;-61
2021/01/26 05:39:46;;;;;;;15.63;7.40;;;;;;;;;;5110505;28;20040;-61
2021/01/26 05:42:14;;;;;;;11.07;7.47;;;;;;;;;;5109705;28;20055;-61
2021/01/26 05:44:45;;;;;;;10.88;6.95;;;;;;;;;;5109771;28;20042;-60
2021/01/26 05:47:25;;;;;;;12.27;7.38;;;;;;;;;;5109178;28;20058;-61
2021/01/26 05:49:51;;;;;;;11.50;7.05;;;;;;;;;;5110637;28;20158;-61
2021/01/26 05:52:18;;;;;;;16.08;7.65;;;;;;;;;;5111103;28;20118;-61
2021/01/26 05:54:53;;;;;;;11.27;7.10;;;;;;;;;;5109160;28;20031;-59
2021/01/26 05:57:35;;;;;;;11.43;6.97;;;;;;;;;;5108221;28;20095;-60
2021/01/26 06:00:22;;;;;;;11.73;7.05;;;;;;;;;;5108328;28;20058;-60
2021/01/26 06:03:04;;;;;;;13.30;6.95;;;;;;;;;;5108788;28;20107;-60
2021/01/26 06:05:29;;;;;;;;;;;;;;;;;;5110472;28;20107;-60
2021/01/26 06:08:13;;;;;;;13.23;6.22;;;;;;;;;;5108319;28;20006;-60
2021/01/26 06:10:43;;;;;;;11.20;6.40;;;;;;;;;;5108691;28;20466;-60
2021/01/26 06:13:09;;;;;;;11.60;7.10;;;;;;;;;;5110407;28;20033;-60
2021/01/26 06:15:37;;;;;;;9.02;5.43;;;;;;;;;;5109045;28;20032;-60
2021/01/26 06:18:10;;;;;;;12.27;7.00;;;;;;;;;;5109145;28;20036;-60
2021/01/26 06:20:36;;;;;;;12.82;6.60;;;;;;;;;;5109837;28;20035;-59
2021/01/26 06:23:14;;;;;;;11.35;6.70;;;;;;;;;;5110452;28;20407;-60
2021/01/26 06:25:41;;;;;;;15.15;6.20;;;;;;;;;;5109792;28;20027;-60
2021/01/26 06:28:34;;;;;;;14.90;5.72;;;;;;;;;;5109430;28;20039;-60
2021/01/26 06:31:05;;;;;;;10.40;5.57;;;;;;;;;;5107943;28;20023;-60
2021/01/26 06:34:11;;;;;;;10.07;6.30;;;;;;;;;;5109701;28;20456;-60
2021/01/26 06:37:05;;;;;;;12.68;5.75;;;;;;;;;;5074371;28;20047;-60
2021/01/26 06:40:01;;;;;;;10.93;5.65;;;;;;;;;;5109546;28;20352;-60
2021/01/26 06:42:39;;;;;;;10.68;5.68;;;;;;;;;;5108036;28;20059;-60
2021/01/26 06:45:24;;;;;;;8.30;4.40;;;;;;;;;;5107391;28;20088;-60
2021/01/26 06:47:50;;;;;;;8.85;4.07;;;;;;;;;;5109056;28;20066;-60
2021/01/26 06:50:36;;;;;;;9.90;4.80;;;;;;;;;;5105383;28;20032;-60
2021/01/26 06:53:17;;;;;;;18.00;4.75;;;;;;;;;;5106184;28;20087;-60
2021/01/26 06:56:10;;;;;;;7.88;4.38;;;;;;;;;;5108046;28;20020;-60
2021/01/26 06:58:47;;;;;;;9.02;4.00;;;;;;;;;;5106636;28;20089;-60
2021/01/26 07:01:30;;;;;;;11.30;4.65;;;;;;;;;;5108820;28;20063;-60
2021/01/26 07:04:10;;;;;;;11.70;4.65;;;;;;;;;;5108846;28;20096;-60
2021/01/26 07:06:51;;;;;;;7.45;3.38;;;;;;;;;;5108259;28;20071;-60
2021/01/26 07:09:19;;;;;;;11.50;4.07;;;;;;;;;;5109057;28;20032;-60
2021/01/26 07:11:56;;;;;;;10.00;4.60;;;;;;;;;;5109475;28;20080;-60
2021/01/26 07:14:49;;;;;;;7.05;3.85;;;;;;;;;;5107676;28;20173;-60
2021/01/26 07:17:56;;;;;;;12.93;3.60;;;;;;;;;;5109176;28;20034;-60
2021/01/26 07:20:44;;;;;;;9.50;3.25;;;;;;;;;;5107763;28;20074;-59
2021/01/26 07:23:51;;;;;;;8.00;2.85;;;;;;;;;;5108555;28;20114;-59
2021/01/26 07:26:30;;;;;;;9.73;3.95;;;;;;;;;;5109510;28;20039;-60
2021/01/26 07:29:27;;;;;;;6.22;3.00;;;;;;;;;;5109317;28;20028;-60
2021/01/26 07:32:05;;;;;;;13.90;3.63;;;;;;;;;;5108349;28;20058;-60
2021/01/26 07:34:38;;;;;;;8.27;3.00;;;;;;;;;;5107958;28;20059;-60
2021/01/26 07:37:11;;;;;;;6.88;3.47;;;;;;;;;;5105975;28;20150;-60
2021/01/26 07:39:46;;;;;;;6.13;2.88;;;;;;;;;;5107050;28;20042;-60
2021/01/26 07:42:20;;;;;;;14.57;3.13;;;;;;;;;;5108128;28;20093;-60
2021/01/26 07:44:57;;;;;;;7.88;3.03;;;;;;;;;;5109408;28;20034;-60
2021/01/26 07:47:34;;;;;;;12.93;3.60;;;;;;;;;;5108947;28;20042;-60
2021/01/26 07:50:15;;;;;;;7.13;2.95;;;;;;;;;;5106012;28;20118;-60
2021/01/26 07:52:45;;;;;;;6.68;2.65;;;;;;;;;;5108798;28;20031;-59
2021/01/26 07:55:26;;;;;;;8.95;2.95;;;;;;;;;;5109002;28;20521;-59
2021/01/26 07:57:57;;;;;;;6.38;2.67;;;;;;;;;;5108265;28;20044;-60
2021/01/26 08:00:28;;;;;;;8.07;2.50;;;;;;;;;;5108200;28;20087;-60
2021/01/26 08:02:55;;;;;;;8.63;2.97;;;;;;;;;;5108959;28;20114;-60
2021/01/26 08:05:38;;;;;;;6.60;2.70;;;;;;;;;;5107893;28;20039;-60
2021/01/26 08:08:05;;;;;;;6.93;2.45;;;;;;;;;;5106846;28;20040;-60
2021/01/26 08:10:31;;;;;;;5.97;2.47;;;;;;;;;;5112294;28;20368;-60
2021/01/26 08:12:56;;;;;;;7.47;2.72;;;;;;;;;;5112228;28;20040;-60
2021/01/26 08:15:30;;;;;;;6.53;2.85;;;;;;;;;;5112215;27;20645;-60
2021/01/26 08:17:56;;;;;;;4.82;2.35;;;;;;;;;;5112493;28;20042;-60
2021/01/26 08:20:33;;;;;;;4.63;2.25;;;;;;;;;;5112136;28;20032;-60
2021/01/26 08:23:03;;;;;;;8.45;2.28;;;;;;;;;;5109013;28;20039;-60
2021/01/26 08:25:34;;;;;;;7.25;2.60;;;;;;;;;;5110855;28;20035;-60
2021/01/26 08:28:30;;;;;;;4.72;1.80;;;;;;;;;;5108838;28;20074;-60
2021/01/26 08:30:58;;;;;;;5.43;2.35;;;;;;;;;;5111212;28;20039;-60
2021/01/26 08:33:31;;;;;;;8.00;1.98;;;;;;;;;;5110413;28;20070;-61
2021/01/26 08:36:25;;;;;;;9.35;2.42;;;;;;;;;;5111832;28;20047;-60
2021/01/26 08:38:54;;;;;;;4.95;2.13;;;;;;;;;;5111872;28;20570;-60
2021/01/26 08:41:43;;;;;;;5.88;2.30;;;;;;;;;;5109879;28;20059;-60
2021/01/26 08:44:28;;;;;;;6.32;2.42;;;;;;;;;;5110915;28;20345;-60
2021/01/26 08:46:55;;;;;;;6.22;2.40;;;;;;;;;;5105232;28;20380;-60
2021/01/26 08:49:30;;;;;;;8.02;2.60;;;;;;;;;;5111250;28;20028;-60
2021/01/26 08:52:21;;;;;;;6.28;2.40;;;;;;;;;;5110296;28;20087;-60
2021/01/26 08:54:49;;;;;;;9.55;2.85;;;;;;;;;;5111600;28;20483;-60
2021/01/26 08:57:26;;;;;;;6.60;2.50;;;;;;;;;;5111576;28;20032;-60
2021/01/26 08:59:58;;;;;;;9.23;2.58;;;;;;;;;;5110725;28;20061;-61
2021/01/26 09:02:32;;;;;;;4.00;2.00;;;;;;;;;;5110317;28;20073;-60
2021/01/26 09:04:57;;;;;;;5.25;1.90;;;;;;;;;;5111729;28;20035;-60
2021/01/26 09:07:44;;;;;;;6.88;2.40;;;;;;;;;;5110317;28;20046;-60
2021/01/26 09:10:20;;;;;;;6.45;2.47;;;;;;;;;;5110445;28;20039;-60
2021/01/26 09:12:48;;;;;;;5.22;1.98;;;;;;;;;;5108885;28;20400;-60
2021/01/26 09:15:14;;;;;;;7.93;2.15;;;;;;;;;;5104583;28;20042;-60
2021/01/26 09:17:41;;;;;;;6.13;2.17;;;;;;;;;;5110930;28;20467;-61
2021/01/26 09:20:22;;;;;;;5.03;2.15;;;;;;;;;;5111395;28;20042;-61
2021/01/26 09:22:48;;;;;;;3.92;1.88;;;;;;;;;;5111385;28;20360;-61
2021/01/26 09:25:15;;;;;;;7.85;2.15;;;;;;;;;;5111356;28;20039;-61
2021/01/26 09:27:41;;;;;;;8.18;2.25;;;;;;;;;;5111152;28;20046;-61
2021/01/26 09:30:09;;;;;;;5.95;2.78;;;;;;;;;;5108128;28;20071;-61
2021/01/26 09:32:36;;;;;;;5.45;1.73;;;;;;;;;;5110541;28;20027;-61
2021/01/26 09:35:21;;;;;;;6.38;1.92;;;;;;;;;;5110905;28;20042;-59
2021/01/26 09:37:57;;;;;;;7.72;2.13;;;;;;;;;;5108806;28;20110;-60
2021/01/26 09:40:23;;;;;;;4.70;1.73;;;;;;;;;;5110120;28;20035;-60
2021/01/26 09:42:48;;;;;;;7.13;2.22;;;;;;;;;;5110865;28;20030;-60
2021/01/26 09:45:17;;;;;;;7.40;2.20;;;;;;;;;;5110498;28;20338;-60
2021/01/26 09:47:43;;;;;;;8.07;2.42;;;;;;;;;;5107988;28;20031;-60
2021/01/26 09:50:13;;;;;;;6.45;2.38;;;;;;;;;;5110712;28;20479;-60
2021/01/26 09:52:40;;;;;;;10.10;2.55;;;;;;;;;;5110425;28;20043;-60
2021/01/26 09:55:12;;;;;;;5.55;2.42;;;;;;;;;;5109133;28;20374;-60
2021/01/26 09:57:39;;;;;;;7.00;2.13;;;;;;;;;;5109215;28;20039;-60
2021/01/26 10:00:13;;;;;;;4.82;2.13;;;;;;;;;;5110241;28;20035;-60
2021/01/26 10:02:41;;;;;;;5.25;2.40;;;;;;;;;;5106251;28;20035;-60
2021/01/26 10:05:14;;;;;;;6.38;1.95;;;;;;;;;;5109599;28;20112;-60
2021/01/26 10:07:40;;;;;;;4.93;2.03;;;;;;;;;;5109248;28;20032;-60
2021/01/26 10:10:27;;;;;;;5.55;2.10;;;;;;;;;;5109376;28;20039;-60
2021/01/26 10:12:53;;;;;;;10.98;3.00;;;;;;;;;;5107974;27;20865;-60
2021/01/26 10:15:24;;;;;;;6.53;2.17;;;;;;;;;;5108199;28;20039;-60
2021/01/26 10:18:03;;;;;;;;;;;;;;;;;;5109671;28;20404;-60
2021/01/26 10:20:35;;;;;;;7.22;2.20;;;;;;;;;;5107096;28;19912;-60
2021/01/26 10:23:13;;;;;;;7.90;2.40;;;;;;;;;;5105629;28;20031;-60
2021/01/26 10:25:42;;;;;;;6.15;2.00;;;;;;;;;;5109296;28;20085;-60
2021/01/26 10:28:11;;;;;;;8.07;2.20;;;;;;;;;;5109636;28;20036;-60
2021/01/26 10:30:45;;;;;;;9.45;2.17;;;;;;;;;;5109206;28;20057;-60
2021/01/26 10:33:28;;;;;;;6.60;2.22;;;;;;;;;;5109316;28;20031;-60
2021/01/26 10:35:53;;;;;;;5.80;2.03;;;;;;;;;;5108826;28;20039;-60
2021/01/26 10:38:24;;;;;;;10.10;2.20;;;;;;;;;;5109827;28;20506;-60
2021/01/26 10:41:11;;;;;;;5.90;2.42;;;;;;;;;;5108774;28;20050;-60
2021/01/26 10:43:38;;;;;;;5.22;2.33;;;;;;;;;;5109350;28;20039;-60
2021/01/26 10:46:03;;;;;;;5.55;2.10;;;;;;;;;;5091932;28;20036;-60
2021/01/26 10:48:35;;;;;;;3.70;1.92;;;;;;;;;;5109431;28;20040;-60
2021/01/26 10:51:27;;;;;;;5.57;2.45;;;;;;;;;;5106460;28;20051;-60
2021/01/26 10:53:52;;;;;;;;;;;;;;;;;;5108357;28;20050;-59
2021/01/26 10:56:17;;;;;;;6.22;2.13;;;;;;;;;;5109114;28;19920;-60
2021/01/26 10:58:44;;;;;;;8.68;2.15;;;;;;;;;;5109235;28;20027;-60
2021/01/26 11:01:12;;;;;;;6.10;1.88;;;;;;;;;;5106437;28;20047;-60
2021/01/26 11:03:38;;;;;;;4.40;1.90;;;;;;;;;;5104049;28;20046;-60
2021/01/26 11:06:03;;;;;;;9.02;1.95;;;;;;;;;;5107683;28;20035;-60
2021/01/26 11:08:29;;;;;;;5.18;1.75;;;;;;;;;;5106476;28;20080;-60
2021/01/26 11:10:54;;;;;;;5.20;1.90;;;;;;;;;;5099160;28;20085;-60
2021/01/26 11:13:20;;;;;;;18.98;2.30;;;;;;;;;;5100696;28;20041;-60
2021/01/26 11:15:45;;;;;;;4.55;1.80;;;;;;;;;;5106525;28;20220;-61
2021/01/26 11:18:11;;;;;;;4.60;1.65;;;;;;;;;;5104240;28;20365;-61
2021/01/26 11:20:37;;;;;;;6.15;1.83;;;;;;;;;;5106594;28;20039;-60
2021/01/26 11:23:03;;;;;;;4.30;1.77;;;;;;;;;;5106431;28;20046;-61
2021/01/26 11:25:28;;;;;;;4.68;1.85;;;;;;;;;;5103503;28;20157;-61
2021/01/26 11:27:54;;;;;;;3.30;1.77;;;;;;;;;;5105601;28;20044;-61
2021/01/26 11:30:21;;;;;;;5.68;2.10;;;;;;;;;;5106406;28;20364;-61
2021/01/26 11:32:47;;;;;;;5.57;1.80;;;;;;;;;;5106749;28;20103;-61
2021/01/26 11:35:16;;;;;;;4.55;1.55;;;;;;;;;;5105288;28;20555;-61
2021/01/26 11:37:41;;;;;;;7.13;2.17;;;;;;;;;;5106301;28;20201;-61
2021/01/26 11:40:08;;;;;;;4.68;1.60;;;;;;;;;;5106836;28;20126;-61
2021/01/26 11:42:35;;;;;;;6.50;2.17;;;;;;;;;;5106600;28;20107;-61
2021/01/26 11:45:00;;;;;;;6.90;1.73;;;;;;;;;;5110552;28;20551;-60
2021/01/26 11:47:26;;;;;;;4.75;1.98;;;;;;;;;;5109407;28;20043;-60
2021/01/26 11:49:51;;;;;;;18.40;2.42;;;;;;;;;;5110592;28;20111;-60
2021/01/26 11:52:16;;;;;;;4.18;1.50;;;;;;;;;;5106182;27;20461;-60
2021/01/26 11:54:42;;;;;;;9.05;2.35;;;;;;;;;;5108800;28;20483;-60
2021/01/26 11:57:07;;;;;;;7.25;1.98;;;;;;;;;;5110233;28;20055;-60
2021/01/26 11:59:33;;;;;;;6.63;2.33;;;;;;;;;;5109875;28;20043;-60
2021/01/26 12:01:58;;;;;;;6.47;1.85;;;;;;;;;;5107954;28;20476;-61
2021/01/26 12:04:24;;;;;;;7.68;2.17;;;;;;;;;;5109770;28;20028;-60
2021/01/26 12:06:49;;;;;;;9.35;2.17;;;;;;;;;;5108975;28;20043;-61
2021/01/26 12:09:15;;;;;;;8.35;1.95;;;;;;;;;;5107529;28;20041;-60
2021/01/26 12:11:41;;;;;;;3.45;1.35;;;;;;;;;;5101345;28;20114;-62
2021/01/26 12:14:07;;;;;;;4.70;1.80;;;;;;;;;;5101799;28;20036;-62
2021/01/26 12:16:33;;;;;;;7.05;2.22;;;;;;;;;;5106511;28;20137;-62
2021/01/26 12:18:58;;;;;;;7.80;2.35;;;;;;;;;;5105588;28;20122;-62
2021/01/26 12:21:24;;;;;;;7.30;1.55;;;;;;;;;;5106742;28;20088;-62
2021/01/26 12:23:49;;;;;;;4.75;1.92;;;;;;;;;;5108427;28;20220;-62
2021/01/26 12:26:15;;;;;;;8.90;1.92;;;;;;;;;;5107228;28;20042;-62
2021/01/26 12:28:41;;;;;;;13.18;2.80;;;;;;;;;;5106780;28;20050;-62
2021/01/26 12:31:06;;;;;;;5.68;2.03;;;;;;;;;;5109825;28;20031;-62
2021/01/26 12:33:32;;;;;;;5.22;1.98;;;;;;;;;;5109278;28;20114;-62
2021/01/26 12:35:57;;;;;;;7.03;1.80;;;;;;;;;;5108531;28;20118;-62
2021/01/26 12:38:22;;;;;;;10.13;2.30;;;;;;;;;;5107930;28;20057;-61
2021/01/26 12:40:48;;;;;;;5.38;1.70;;;;;;;;;;5109679;28;20046;-62
2021/01/26 12:43:13;;;;;;;7.72;1.95;;;;;;;;;;5108753;28;20042;-62
2021/01/26 12:45:39;;;;;;;4.40;2.30;;;;;;;;;;5108284;28;20042;-62
2021/01/26 12:48:05;;;;;;;6.50;1.90;;;;;;;;;;5108212;28;20043;-62
2021/01/26 12:50:34;;;;;;;6.28;1.90;;;;;;;;;;5108476;28;20533;-62
2021/01/26 12:53:00;;;;;;;4.20;1.73;;;;;;;;;;5106408;28;20042;-62
2021/01/26 12:55:25;;;;;;;5.85;1.95;;;;;;;;;;5108949;28;20603;-62
2021/01/26 12:57:51;;;;;;;4.85;1.65;;;;;;;;;;5107914;28;20483;-61
2021/01/26 13:00:19;;;;;;;7.38;1.65;;;;;;;;;;5109398;28;20027;-62
2021/01/26 13:02:45;;;;;;;6.45;1.60;;;;;;;;;;5109073;28;20031;-62
2021/01/26 13:05:12;;;;;;;4.75;1.30;;;;;;;;;;5107833;28;20043;-62
2021/01/26 13:07:37;;;;;;;8.90;1.85;;;;;;;;;;5108052;28;21715;-62
2021/01/26 13:10:05;;;;;;;3.55;1.63;;;;;;;;;;5101350;28;20122;-61
2021/01/26 13:12:30;;;;;;;5.20;2.30;;;;;;;;;;5104287;28;20043;-61
2021/01/26 13:14:56;;;;;;;3.00;1.35;;;;;;;;;;5102405;28;20042;-59
2021/01/26 13:17:22;;;;;;;6.57;1.90;;;;;;;;;;5102671;28;20041;-60
2021/01/26 13:19:47;;;;;;;4.72;1.77;;;;;;;;;;5106683;28;20036;-60
2021/01/26 13:22:13;;;;;;;4.22;1.77;;;;;;;;;;5104967;28;20054;-60
2021/01/26 13:24:38;;;;;;;4.63;1.55;;;;;;;;;;5105638;28;20465;-60
2021/01/26 13:27:06;;;;;;;4.28;1.40;;;;;;;;;;5105498;28;20079;-60
2021/01/26 13:29:31;;;;;;;8.20;2.40;;;;;;;;;;5106072;28;20057;-61
2021/01/26 13:31:57;;;;;;;5.20;1.75;;;;;;;;;;5102581;28;20039;-61
2021/01/26 13:34:23;;;;;;;6.07;1.80;;;;;;;;;;5102227;28;20031;-61
2021/01/26 13:36:49;;;;;;;8.30;2.13;;;;;;;;;;5102952;28;20027;-60
2021/01/26 13:39:14;;;;;;;14.60;2.97;;;;;;;;;;5104994;28;20039;-61
2021/01/26 13:41:48;;;;;;;4.45;1.80;;;;;;;;;;5106093;28;20064;-61
2021/01/26 13:44:15;;;;;;;3.72;1.25;;;;;;;;;;5106897;28;20035;-61
2021/01/26 13:46:40;;;;;;;9.77;1.90;;;;;;;;;;5104822;28;20114;-61
2021/01/26 13:49:06;;;;;;;6.13;1.77;;;;;;;;;;5109018;27;20118;-61
2021/01/26 13:51:34;;;;;;;7.22;2.20;;;;;;;;;;5109669;28;20035;-61
2021/01/26 13:54:04;;;;;;;4.97;1.92;;;;;;;;;;5109033;28;20035;-60
2021/01/26 13:56:30;;;;;;;8.38;2.28;;;;;;;;;;5111010;28;20094;-62
2021/01/26 13:58:55;;;;;;;6.75;2.38;;;;;;;;;;5111574;28;20062;-61
2021/01/26 14:01:21;;;;;;;5.10;1.95;;;;;;;;;;5110190;28;20093;-61
2021/01/26 14:03:47;;;;;;;5.55;1.98;;;;;;;;;;5108895;27;20116;-60
2021/01/26 14:06:13;;;;;;;7.00;2.13;;;;;;;;;;5106036;28;20040;-61
2021/01/26 14:08:39;;;;;;;4.97;1.65;;;;;;;;;;5105507;28;20043;-60
2021/01/26 14:11:04;;;;;;;5.90;1.85;;;;;;;;;;5109234;28;20128;-60
2021/01/26 14:13:29;;;;;;;7.07;1.80;;;;;;;;;;5108303;28;20367;-60
2021/01/26 14:15:54;;;;;;;9.82;2.13;;;;;;;;;;5109121;28;20027;-60
2021/01/26 14:18:20;;;;;;;7.15;1.73;;;;;;;;;;5109091;28;20027;-60
2021/01/26 14:20:45;;;;;;;6.40;2.15;;;;;;;;;;5109874;28;20031;-60
2021/01/26 14:23:11;;;;;;;6.65;2.75;;;;;;;;;;5110303;28;20027;-60
2021/01/26 14:25:36;;;;;;;11.90;2.22;;;;;;;;;;5107910;28;20032;-61
2021/01/26 14:28:02;;;;;;;4.28;1.80;;;;;;;;;;5108430;28;20042;-61
2021/01/26 14:30:28;;;;;;;9.48;1.95;;;;;;;;;;5110014;28;20169;-60
2021/01/26 14:32:54;;;;;;;7.57;1.83;;;;;;;;;;5110648;28;20043;-60
2021/01/26 14:35:27;;;;;;;5.63;2.10;;;;;;;;;;5109590;28;20035;-60
2021/01/26 14:37:52;;;;;;;4.47;1.65;;;;;;;;;;5109809;28;20039;-60
2021/01/26 14:40:17;;;;;;;7.25;2.55;;;;;;;;;;5111022;28;20047;-60
2021/01/26 14:42:43;;;;;;;6.20;1.98;;;;;;;;;;5109863;28;20019;-61
2021/01/26 14:45:09;;;;;;;6.22;2.00;;;;;;;;;;5111007;28;20032;-60
2021/01/26 14:47:35;;;;;;;4.00;1.70;;;;;;;;;;5108975;28;20058;-60
2021/01/26 14:50:03;;;;;;;5.18;2.00;;;;;;;;;;5110999;28;20389;-60
2021/01/26 14:52:29;;;;;;;11.45;2.42;;;;;;;;;;5108720;28;20027;-60
2021/01/26 14:54:54;;;;;;;12.68;1.98;;;;;;;;;;5111445;28;20466;-60
2021/01/26 14:57:19;;;;;;;5.47;2.40;;;;;;;;;;5109200;28;20180;-60
2021/01/26 14:59:45;;;;;;;7.10;2.13;;;;;;;;;;5109196;28;20049;-60